sensor_id;sensor_type;location;lat;lon;timestamp;temperature;humidity
43665;DHT22;29263;48.172;11.484;2023-09-19T00:02:17;15.90;99.90
43665;DHT22;29263;48.172;11.484;2023-09-19T00:04:43;16.00;99.90
43665;DHT22;29263;48.172;11.484;2023-09-19T00:07:09;16.00;99.90
43665;DHT22;29263;48.172;11.484;2023-09-19T00:09:35;16.00;99.90
43665;DHT22;29263;48.172;11.484;2023-09-19T00:12:05;16.10;99.90
43665;DHT22;29263;48.172;11.484;2023-09-19T00:14:31;16.00;99.90
43665;DHT22;29263;48.172;11.484;2023-09-19T00:16:59;16.10;99.90
43665;DHT22;29263;48.172;11.484;2023-09-19T00:19:26;16.10;99.90
43665;DHT22;29263;48.172;11.484;2023-09-19T00:21:51;16.10;99.90
43665;DHT22;29263;48.172;11.484;2023-09-19T00:24:18;16.10;99.90
43665;DHT22;29263;48.172;11.484;2023-09-19T00:26:44;16.10;99.90
43665;DHT22;29263;48.172;11.484;2023-09-19T00:29:11;16.20;99.90
43665;DHT22;29263;48.172;11.484;2023-09-19T00:31:43;16.10;99.90
43665;DHT22;29263;48.172;11.484;2023-09-19T00:34:09;16.10;99.90
43665;DHT22;29263;48.172;11.484;2023-09-19T00:36:38;16.10;99.90
43665;DHT22;29263;48.172;11.484;2023-09-19T00:39:05;16.10;99.90
43665;DHT22;29263;48.172;11.484;2023-09-19T00:41:32;16.10;99.90
43665;DHT22;29263;48.172;11.484;2023-09-19T00:43:57;16.10;99.90
43665;DHT22;29263;48.172;11.484;2023-09-19T00:46:25;16.10;99.90
43665;DHT22;29263;48.172;11.484;2023-09-19T00:48:51;16.10;99.90
43665;DHT22;29263;48.172;11.484;2023-09-19T00:51:17;16.10;99.90
43665;DHT22;29263;48.172;11.484;2023-09-19T00:53:47;16.10;99.90
43665;DHT22;29263;48.172;11.484;2023-09-19T00:56:14;16.10;99.90
43665;DHT22;29263;48.172;11.484;2023-09-19T00:58:40;16.10;99.90
43665;DHT22;29263;48.172;11.484;2023-09-19T01:01:06;16.20;99.90
43665;DHT22;29263;48.172;11.484;2023-09-19T01:03:36;16.20;99.90
43665;DHT22;29263;48.172;11.484;2023-09-19T01:06:02;16.20;99.90
43665;DHT22;29263;48.172;11.484;2023-09-19T01:08:28;16.20;99.90
43665;DHT22;29263;48.172;11.484;2023-09-19T01:11:11;16.20;99.90
43665;DHT22;29263;48.172;11.484;2023-09-19T01:13:55;16.20;99.90
43665;DHT22;29263;48.172;11.484;2023-09-19T01:19:28;16.20;99.90
43665;DHT22;29263;48.172;11.484;2023-09-19T01:30:18;16.20;99.90
43665;DHT22;29263;48.172;11.484;2023-09-19T01:32:51;16.20;99.90
43665;DHT22;29263;48.172;11.484;2023-09-19T01:35:18;16.20;99.90
43665;DHT22;29263;48.172;11.484;2023-09-19T01:37:44;16.20;99.90
43665;DHT22;29263;48.172;11.484;2023-09-19T01:40:12;16.20;99.90
43665;DHT22;29263;48.172;11.484;2023-09-19T01:45:37;16.20;99.90
43665;DHT22;29263;48.172;11.484;2023-09-19T01:51:05;16.20;99.90
43665;DHT22;29263;48.172;11.484;2023-09-19T01:53:41;16.10;99.90
43665;DHT22;29263;48.172;11.484;2023-09-19T01:56:12;16.20;99.90
43665;DHT22;29263;48.172;11.484;2023-09-19T01:58:45;16.20;99.90
43665;DHT22;29263;48.172;11.484;2023-09-19T02:01:16;16.20;99.90
43665;DHT22;29263;48.172;11.484;2023-09-19T02:03:44;16.20;99.90
43665;DHT22;29263;48.172;11.484;2023-09-19T02:06:18;16.20;99.90
43665;DHT22;29263;48.172;11.484;2023-09-19T02:08:45;16.20;99.90
43665;DHT22;29263;48.172;11.484;2023-09-19T02:11:11;16.20;99.90
43665;DHT22;29263;48.172;11.484;2023-09-19T02:13:38;16.20;99.90
43665;DHT22;29263;48.172;11.484;2023-09-19T02:16:05;16.20;99.90
43665;DHT22;29263;48.172;11.484;2023-09-19T02:18:32;16.20;99.90
43665;DHT22;29263;48.172;11.484;2023-09-19T02:21:01;16.20;99.90
43665;DHT22;29263;48.172;11.484;2023-09-19T02:23:26;16.20;99.90
43665;DHT22;29263;48.172;11.484;2023-09-19T02:25:55;16.20;99.90
43665;DHT22;29263;48.172;11.484;2023-09-19T02:28:23;16.20;99.90
43665;DHT22;29263;48.172;11.484;2023-09-19T02:30:49;16.20;99.90
43665;DHT22;29263;48.172;11.484;2023-09-19T02:33:15;16.10;99.90
43665;DHT22;29263;48.172;11.484;2023-09-19T02:35:42;16.10;99.90
43665;DHT22;29263;48.172;11.484;2023-09-19T02:38:08;16.10;99.90
43665;DHT22;29263;48.172;11.484;2023-09-19T02:40:36;16.10;99.90
43665;DHT22;29263;48.172;11.484;2023-09-19T02:43:02;16.10;99.90
43665;DHT22;29263;48.172;11.484;2023-09-19T02:45:28;16.10;99.90
43665;DHT22;29263;48.172;11.484;2023-09-19T02:47:55;16.00;99.90
43665;DHT22;29263;48.172;11.484;2023-09-19T02:50:21;16.10;99.90
43665;DHT22;29263;48.172;11.484;2023-09-19T02:52:47;16.00;99.90
43665;DHT22;29263;48.172;11.484;2023-09-19T02:55:17;16.00;99.90
43665;DHT22;29263;48.172;11.484;2023-09-19T02:57:49;16.10;99.90
43665;DHT22;29263;48.172;11.484;2023-09-19T03:00:16;16.10;99.90
43665;DHT22;29263;48.172;11.484;2023-09-19T03:02:42;16.00;99.90
43665;DHT22;29263;48.172;11.484;2023-09-19T03:05:08;16.00;99.90
43665;DHT22;29263;48.172;11.484;2023-09-19T03:07:36;16.00;99.90
43665;DHT22;29263;48.172;11.484;2023-09-19T03:10:05;16.00;99.90
43665;DHT22;29263;48.172;11.484;2023-09-19T03:12:31;15.90;99.90
43665;DHT22;29263;48.172;11.484;2023-09-19T03:14:57;15.90;99.90
43665;DHT22;29263;48.172;11.484;2023-09-19T03:17:23;15.90;99.90
43665;DHT22;29263;48.172;11.484;2023-09-19T03:19:48;15.90;99.90
43665;DHT22;29263;48.172;11.484;2023-09-19T03:22:14;15.90;99.90
43665;DHT22;29263;48.172;11.484;2023-09-19T03:24:41;15.80;99.90
43665;DHT22;29263;48.172;11.484;2023-09-19T03:27:11;15.90;99.90
43665;DHT22;29263;48.172;11.484;2023-09-19T03:29:39;15.80;99.90
43665;DHT22;29263;48.172;11.484;2023-09-19T03:32:05;15.80;99.90
43665;DHT22;29263;48.172;11.484;2023-09-19T03:34:31;15.90;99.90
43665;DHT22;29263;48.172;11.484;2023-09-19T03:36:56;15.90;99.90
43665;DHT22;29263;48.172;11.484;2023-09-19T03:39:22;16.00;99.90
43665;DHT22;29263;48.172;11.484;2023-09-19T03:41:48;16.00;99.90
43665;DHT22;29263;48.172;11.484;2023-09-19T03:44:15;16.10;99.90
43665;DHT22;29263;48.172;11.484;2023-09-19T03:46:40;16.10;99.90
43665;DHT22;29263;48.172;11.484;2023-09-19T03:49:06;16.20;99.90
43665;DHT22;29263;48.172;11.484;2023-09-19T03:51:32;16.20;99.90
43665;DHT22;29263;48.172;11.484;2023-09-19T03:53:59;16.30;99.90
43665;DHT22;29263;48.172;11.484;2023-09-19T03:56:25;16.30;99.90
43665;DHT22;29263;48.172;11.484;2023-09-19T03:58:51;16.30;99.90
43665;DHT22;29263;48.172;11.484;2023-09-19T04:01:16;16.30;99.90
43665;DHT22;29263;48.172;11.484;2023-09-19T04:03:43;16.40;99.90
43665;DHT22;29263;48.172;11.484;2023-09-19T04:06:14;16.30;99.90
43665;DHT22;29263;48.172;11.484;2023-09-19T04:08:40;16.40;99.90
43665;DHT22;29263;48.172;11.484;2023-09-19T04:11:05;16.30;99.90
43665;DHT22;29263;48.172;11.484;2023-09-19T04:13:31;16.30;99.90
43665;DHT22;29263;48.172;11.484;2023-09-19T04:15:57;16.40;99.90
43665;DHT22;29263;48.172;11.484;2023-09-19T04:18:22;16.40;99.90
43665;DHT22;29263;48.172;11.484;2023-09-19T04:20:52;16.40;99.90
43665;DHT22;29263;48.172;11.484;2023-09-19T04:23:18;16.50;99.90
43665;DHT22;29263;48.172;11.484;2023-09-19T04:25:46;16.50;99.90
43665;DHT22;29263;48.172;11.484;2023-09-19T04:28:13;16.50;99.90
43665;DHT22;29263;48.172;11.484;2023-09-19T04:30:39;16.50;99.90
43665;DHT22;29263;48.172;11.484;2023-09-19T04:33:06;16.50;99.90
43665;DHT22;29263;48.172;11.484;2023-09-19T04:35:32;16.60;99.90
43665;DHT22;29263;48.172;11.484;2023-09-19T04:37:57;16.60;99.90
43665;DHT22;29263;48.172;11.484;2023-09-19T04:40:23;16.60;99.90
43665;DHT22;29263;48.172;11.484;2023-09-19T04:42:56;16.60;99.90
43665;DHT22;29263;48.172;11.484;2023-09-19T04:45:23;16.50;99.90
43665;DHT22;29263;48.172;11.484;2023-09-19T04:47:48;16.50;99.90
43665;DHT22;29263;48.172;11.484;2023-09-19T04:50:14;16.50;99.90
43665;DHT22;29263;48.172;11.484;2023-09-19T04:52:44;16.50;99.90
43665;DHT22;29263;48.172;11.484;2023-09-19T04:55:16;16.50;99.90
43665;DHT22;29263;48.172;11.484;2023-09-19T04:57:48;16.50;99.90
43665;DHT22;29263;48.172;11.484;2023-09-19T05:00:19;16.50;99.90
43665;DHT22;29263;48.172;11.484;2023-09-19T05:02:51;16.40;99.90
43665;DHT22;29263;48.172;11.484;2023-09-19T05:05:17;16.40;99.90
43665;DHT22;29263;48.172;11.484;2023-09-19T05:07:45;16.50;99.90
43665;DHT22;29263;48.172;11.484;2023-09-19T05:10:11;16.50;99.90
43665;DHT22;29263;48.172;11.484;2023-09-19T05:12:38;16.50;99.90
43665;DHT22;29263;48.172;11.484;2023-09-19T05:15:04;16.50;99.90
43665;DHT22;29263;48.172;11.484;2023-09-19T05:17:30;16.50;99.90
43665;DHT22;29263;48.172;11.484;2023-09-19T05:19:57;16.50;99.90
43665;DHT22;29263;48.172;11.484;2023-09-19T05:22:23;16.60;99.90
43665;DHT22;29263;48.172;11.484;2023-09-19T05:24:50;16.50;99.90
43665;DHT22;29263;48.172;11.484;2023-09-19T05:27:16;16.50;99.90
43665;DHT22;29263;48.172;11.484;2023-09-19T05:29:45;16.50;99.90
43665;DHT22;29263;48.172;11.484;2023-09-19T05:32:11;16.50;99.90
43665;DHT22;29263;48.172;11.484;2023-09-19T05:34:37;16.50;99.90
43665;DHT22;29263;48.172;11.484;2023-09-19T05:37:04;16.50;99.90
43665;DHT22;29263;48.172;11.484;2023-09-19T05:39:32;16.50;99.90
43665;DHT22;29263;48.172;11.484;2023-09-19T05:41:58;16.50;99.90
43665;DHT22;29263;48.172;11.484;2023-09-19T05:44:25;16.50;99.90
43665;DHT22;29263;48.172;11.484;2023-09-19T05:46:51;16.50;99.90
43665;DHT22;29263;48.172;11.484;2023-09-19T05:49:17;16.50;99.90
43665;DHT22;29263;48.172;11.484;2023-09-19T05:51:43;16.50;99.90
43665;DHT22;29263;48.172;11.484;2023-09-19T05:54:08;16.40;99.90
43665;DHT22;29263;48.172;11.484;2023-09-19T05:56:34;16.40;99.90
43665;DHT22;29263;48.172;11.484;2023-09-19T05:59:00;16.50;99.90
43665;DHT22;29263;48.172;11.484;2023-09-19T06:01:25;16.50;99.90
43665;DHT22;29263;48.172;11.484;2023-09-19T06:03:52;16.50;99.90
43665;DHT22;29263;48.172;11.484;2023-09-19T06:06:18;16.60;99.90
43665;DHT22;29263;48.172;11.484;2023-09-19T06:08:44;16.70;99.90
43665;DHT22;29263;48.172;11.484;2023-09-19T06:11:10;16.70;99.90
43665;DHT22;29263;48.172;11.484;2023-09-19T06:13:36;16.70;99.90
43665;DHT22;29263;48.172;11.484;2023-09-19T06:16:03;16.80;99.90
43665;DHT22;29263;48.172;11.484;2023-09-19T06:18:31;16.80;99.90
43665;DHT22;29263;48.172;11.484;2023-09-19T06:20:59;16.80;99.90
43665;DHT22;29263;48.172;11.484;2023-09-19T06:23:25;16.80;99.90
43665;DHT22;29263;48.172;11.484;2023-09-19T06:25:52;16.90;99.90
43665;DHT22;29263;48.172;11.484;2023-09-19T06:28:18;16.90;99.90
43665;DHT22;29263;48.172;11.484;2023-09-19T06:30:49;16.90;99.90
43665;DHT22;29263;48.172;11.484;2023-09-19T06:33:14;16.90;99.90
43665;DHT22;29263;48.172;11.484;2023-09-19T06:35:40;16.90;99.90
43665;DHT22;29263;48.172;11.484;2023-09-19T06:38:07;16.90;99.90
43665;DHT22;29263;48.172;11.484;2023-09-19T06:40:34;16.90;99.90
43665;DHT22;29263;48.172;11.484;2023-09-19T06:43:00;16.90;99.90
43665;DHT22;29263;48.172;11.484;2023-09-19T06:45:27;16.90;99.90
43665;DHT22;29263;48.172;11.484;2023-09-19T06:47:53;16.90;99.90
43665;DHT22;29263;48.172;11.484;2023-09-19T06:50:23;17.00;99.90
43665;DHT22;29263;48.172;11.484;2023-09-19T06:52:50;17.20;99.90
43665;DHT22;29263;48.172;11.484;2023-09-19T06:55:20;17.30;99.90
43665;DHT22;29263;48.172;11.484;2023-09-19T06:57:47;17.40;99.90
43665;DHT22;29263;48.172;11.484;2023-09-19T07:00:13;17.60;99.90
43665;DHT22;29263;48.172;11.484;2023-09-19T07:02:59;17.80;99.90
43665;DHT22;29263;48.172;11.484;2023-09-19T07:05:29;17.80;99.90
43665;DHT22;29263;48.172;11.484;2023-09-19T07:07:55;17.80;99.90
43665;DHT22;29263;48.172;11.484;2023-09-19T07:10:30;17.80;99.90
43665;DHT22;29263;48.172;11.484;2023-09-19T07:15:25;17.70;99.90
43665;DHT22;29263;48.172;11.484;2023-09-19T07:17:54;17.60;99.90
43665;DHT22;29263;48.172;11.484;2023-09-19T07:20:22;17.60;99.90
43665;DHT22;29263;48.172;11.484;2023-09-19T07:22:49;17.60;99.90
43665;DHT22;29263;48.172;11.484;2023-09-19T07:25:16;17.60;99.90
43665;DHT22;29263;48.172;11.484;2023-09-19T07:27:42;17.70;99.90
43665;DHT22;29263;48.172;11.484;2023-09-19T07:30:09;17.70;99.90
43665;DHT22;29263;48.172;11.484;2023-09-19T07:32:35;17.70;99.90
43665;DHT22;29263;48.172;11.484;2023-09-19T07:35:02;17.80;99.90
43665;DHT22;29263;48.172;11.484;2023-09-19T07:37:29;17.90;99.90
43665;DHT22;29263;48.172;11.484;2023-09-19T07:40:02;17.90;99.90
43665;DHT22;29263;48.172;11.484;2023-09-19T07:42:28;17.90;99.90
43665;DHT22;29263;48.172;11.484;2023-09-19T07:44:54;17.90;99.90
43665;DHT22;29263;48.172;11.484;2023-09-19T07:47:22;17.90;99.90
43665;DHT22;29263;48.172;11.484;2023-09-19T07:49:48;17.90;99.90
43665;DHT22;29263;48.172;11.484;2023-09-19T07:52:13;18.00;99.90
43665;DHT22;29263;48.172;11.484;2023-09-19T07:54:39;18.10;99.90
43665;DHT22;29263;48.172;11.484;2023-09-19T07:57:07;18.20;99.90
43665;DHT22;29263;48.172;11.484;2023-09-19T07:59:32;18.30;99.90
43665;DHT22;29263;48.172;11.484;2023-09-19T08:01:58;18.40;99.90
43665;DHT22;29263;48.172;11.484;2023-09-19T08:04:24;18.50;99.90
43665;DHT22;29263;48.172;11.484;2023-09-19T08:06:51;18.50;99.90
43665;DHT22;29263;48.172;11.484;2023-09-19T08:09:17;18.50;99.90
43665;DHT22;29263;48.172;11.484;2023-09-19T08:11:47;18.50;99.90
43665;DHT22;29263;48.172;11.484;2023-09-19T08:14:12;18.40;99.90
43665;DHT22;29263;48.172;11.484;2023-09-19T08:16:39;18.50;99.90
43665;DHT22;29263;48.172;11.484;2023-09-19T08:19:05;18.40;99.90
43665;DHT22;29263;48.172;11.484;2023-09-19T08:21:31;18.40;99.90
43665;DHT22;29263;48.172;11.484;2023-09-19T08:23:57;18.30;99.90
43665;DHT22;29263;48.172;11.484;2023-09-19T08:26:23;18.30;99.90
43665;DHT22;29263;48.172;11.484;2023-09-19T08:28:50;18.30;99.90
43665;DHT22;29263;48.172;11.484;2023-09-19T08:31:17;18.40;99.90
43665;DHT22;29263;48.172;11.484;2023-09-19T08:33:43;18.60;99.90
43665;DHT22;29263;48.172;11.484;2023-09-19T08:36:15;18.80;99.90
43665;DHT22;29263;48.172;11.484;2023-09-19T08:38:41;18.90;99.90
43665;DHT22;29263;48.172;11.484;2023-09-19T08:41:07;19.10;99.90
43665;DHT22;29263;48.172;11.484;2023-09-19T08:43:34;19.20;99.90
43665;DHT22;29263;48.172;11.484;2023-09-19T08:46:09;19.20;99.90
43665;DHT22;29263;48.172;11.484;2023-09-19T08:48:39;19.30;99.90
43665;DHT22;29263;48.172;11.484;2023-09-19T08:51:12;19.50;99.90
43665;DHT22;29263;48.172;11.484;2023-09-19T08:56:16;19.60;99.90
43665;DHT22;29263;48.172;11.484;2023-09-19T08:58:52;19.70;99.90
43665;DHT22;29263;48.172;11.484;2023-09-19T09:01:20;19.70;99.90
43665;DHT22;29263;48.172;11.484;2023-09-19T09:03:56;19.60;99.90
43665;DHT22;29263;48.172;11.484;2023-09-19T09:06:23;19.40;99.90
43665;DHT22;29263;48.172;11.484;2023-09-19T09:08:52;19.30;99.90
43665;DHT22;29263;48.172;11.484;2023-09-19T09:11:19;19.40;99.90
43665;DHT22;29263;48.172;11.484;2023-09-19T09:13:45;19.50;99.90
43665;DHT22;29263;48.172;11.484;2023-09-19T09:16:11;19.70;99.80
43665;DHT22;29263;48.172;11.484;2023-09-19T09:18:38;19.90;99.50
43665;DHT22;29263;48.172;11.484;2023-09-19T09:21:04;20.00;99.10
43665;DHT22;29263;48.172;11.484;2023-09-19T09:23:30;20.00;98.90
43665;DHT22;29263;48.172;11.484;2023-09-19T09:25:58;20.10;99.20
43665;DHT22;29263;48.172;11.484;2023-09-19T09:28:32;20.20;98.60
43665;DHT22;29263;48.172;11.484;2023-09-19T09:30:59;20.30;97.40
43665;DHT22;29263;48.172;11.484;2023-09-19T09:33:28;20.20;97.80
43665;DHT22;29263;48.172;11.484;2023-09-19T09:38:26;19.90;98.80
43665;DHT22;29263;48.172;11.484;2023-09-19T09:40:57;19.80;98.60
43665;DHT22;29263;48.172;11.484;2023-09-19T09:43:36;19.80;98.30
43665;DHT22;29263;48.172;11.484;2023-09-19T09:51:42;19.70;98.70
43665;DHT22;29263;48.172;11.484;2023-09-19T09:54:16;19.70;98.00
43665;DHT22;29263;48.172;11.484;2023-09-19T09:56:59;19.70;98.70
43665;DHT22;29263;48.172;11.484;2023-09-19T09:59:44;19.70;97.50
43665;DHT22;29263;48.172;11.484;2023-09-19T10:02:14;19.90;96.80
43665;DHT22;29263;48.172;11.484;2023-09-19T10:04:42;20.10;96.60
43665;DHT22;29263;48.172;11.484;2023-09-19T10:07:29;20.20;96.20
43665;DHT22;29263;48.172;11.484;2023-09-19T10:10:04;20.30;96.50
43665;DHT22;29263;48.172;11.484;2023-09-19T10:12:43;20.20;96.10
43665;DHT22;29263;48.172;11.484;2023-09-19T10:15:11;20.10;97.40
43665;DHT22;29263;48.172;11.484;2023-09-19T10:17:45;20.10;97.80
43665;DHT22;29263;48.172;11.484;2023-09-19T10:20:17;20.10;96.50
43665;DHT22;29263;48.172;11.484;2023-09-19T10:23:01;20.10;96.40
43665;DHT22;29263;48.172;11.484;2023-09-19T10:25:29;20.20;96.70
43665;DHT22;29263;48.172;11.484;2023-09-19T10:28:00;20.40;96.10
43665;DHT22;29263;48.172;11.484;2023-09-19T10:30:28;20.50;95.20
43665;DHT22;29263;48.172;11.484;2023-09-19T10:33:03;20.60;95.80
43665;DHT22;29263;48.172;11.484;2023-09-19T10:35:29;20.70;95.30
43665;DHT22;29263;48.172;11.484;2023-09-19T10:38:00;20.80;94.80
43665;DHT22;29263;48.172;11.484;2023-09-19T10:40:27;20.80;95.60
43665;DHT22;29263;48.172;11.484;2023-09-19T10:43:02;20.70;95.60
43665;DHT22;29263;48.172;11.484;2023-09-19T10:45:33;20.70;95.40
43665;DHT22;29263;48.172;11.484;2023-09-19T10:48:00;20.70;95.80
43665;DHT22;29263;48.172;11.484;2023-09-19T10:50:30;20.80;95.60
43665;DHT22;29263;48.172;11.484;2023-09-19T10:53:00;20.90;97.00
43665;DHT22;29263;48.172;11.484;2023-09-19T10:55:31;21.10;96.70
43665;DHT22;29263;48.172;11.484;2023-09-19T10:57:59;21.20;96.50
43665;DHT22;29263;48.172;11.484;2023-09-19T11:00:25;21.30;95.60
43665;DHT22;29263;48.172;11.484;2023-09-19T11:03:16;21.40;93.60
43665;DHT22;29263;48.172;11.484;2023-09-19T11:11:44;21.40;93.90
43665;DHT22;29263;48.172;11.484;2023-09-19T11:30:36;21.80;91.40
43665;DHT22;29263;48.172;11.484;2023-09-19T11:36:09;21.90;90.90
43665;DHT22;29263;48.172;11.484;2023-09-19T11:46:33;21.40;90.00
43665;DHT22;29263;48.172;11.484;2023-09-19T11:49:06;21.30;90.70
43665;DHT22;29263;48.172;11.484;2023-09-19T11:51:51;21.20;90.50
43665;DHT22;29263;48.172;11.484;2023-09-19T11:54:17;21.20;90.60
43665;DHT22;29263;48.172;11.484;2023-09-19T11:56:44;21.10;90.90
43665;DHT22;29263;48.172;11.484;2023-09-19T11:59:11;21.00;90.90
43665;DHT22;29263;48.172;11.484;2023-09-19T12:01:40;21.00;91.50
43665;DHT22;29263;48.172;11.484;2023-09-19T12:04:11;21.00;91.30
43665;DHT22;29263;48.172;11.484;2023-09-19T12:06:37;21.10;92.10
43665;DHT22;29263;48.172;11.484;2023-09-19T12:09:13;21.30;91.90
43665;DHT22;29263;48.172;11.484;2023-09-19T12:11:42;21.50;91.20
43665;DHT22;29263;48.172;11.484;2023-09-19T12:14:09;21.50;91.60
43665;DHT22;29263;48.172;11.484;2023-09-19T12:16:35;21.60;92.50
43665;DHT22;29263;48.172;11.484;2023-09-19T12:19:20;21.50;92.20
43665;DHT22;29263;48.172;11.484;2023-09-19T12:22:07;21.50;91.00
43665;DHT22;29263;48.172;11.484;2023-09-19T12:24:35;21.70;90.30
43665;DHT22;29263;48.172;11.484;2023-09-19T12:27:05;21.80;89.20
43665;DHT22;29263;48.172;11.484;2023-09-19T12:29:32;21.90;88.00
43665;DHT22;29263;48.172;11.484;2023-09-19T12:31:59;21.80;89.60
43665;DHT22;29263;48.172;11.484;2023-09-19T12:34:31;21.80;90.00
43665;DHT22;29263;48.172;11.484;2023-09-19T12:37:12;21.70;90.40
43665;DHT22;29263;48.172;11.484;2023-09-19T12:39:41;21.60;90.10
43665;DHT22;29263;48.172;11.484;2023-09-19T12:42:10;21.50;90.40
43665;DHT22;29263;48.172;11.484;2023-09-19T12:44:44;21.40;90.70
43665;DHT22;29263;48.172;11.484;2023-09-19T12:47:11;21.30;90.60
43665;DHT22;29263;48.172;11.484;2023-09-19T12:49:41;21.20;90.60
43665;DHT22;29263;48.172;11.484;2023-09-19T12:52:22;21.10;91.20
43665;DHT22;29263;48.172;11.484;2023-09-19T12:54:51;21.00;91.90
43665;DHT22;29263;48.172;11.484;2023-09-19T12:57:24;20.90;93.00
43665;DHT22;29263;48.172;11.484;2023-09-19T12:59:52;20.70;94.00
43665;DHT22;29263;48.172;11.484;2023-09-19T13:02:18;20.60;94.00
43665;DHT22;29263;48.172;11.484;2023-09-19T13:04:54;20.60;94.30
43665;DHT22;29263;48.172;11.484;2023-09-19T13:07:40;20.50;94.70
43665;DHT22;29263;48.172;11.484;2023-09-19T13:10:09;20.50;95.10
43665;DHT22;29263;48.172;11.484;2023-09-19T13:12:36;20.50;94.80
43665;DHT22;29263;48.172;11.484;2023-09-19T13:15:16;20.70;94.80
43665;DHT22;29263;48.172;11.484;2023-09-19T13:17:48;21.00;94.10
43665;DHT22;29263;48.172;11.484;2023-09-19T13:20:27;21.20;93.60
43665;DHT22;29263;48.172;11.484;2023-09-19T13:22:58;21.50;93.70
43665;DHT22;29263;48.172;11.484;2023-09-19T13:25:35;21.70;93.10
43665;DHT22;29263;48.172;11.484;2023-09-19T13:28:00;21.90;91.90
43665;DHT22;29263;48.172;11.484;2023-09-19T13:30:29;22.10;91.60
43665;DHT22;29263;48.172;11.484;2023-09-19T13:33:12;22.30;91.80
43665;DHT22;29263;48.172;11.484;2023-09-19T13:35:39;22.60;90.90
43665;DHT22;29263;48.172;11.484;2023-09-19T13:38:06;22.80;91.10
43665;DHT22;29263;48.172;11.484;2023-09-19T13:40:35;22.80;91.40
43665;DHT22;29263;48.172;11.484;2023-09-19T13:43:01;23.00;91.30
43665;DHT22;29263;48.172;11.484;2023-09-19T13:45:26;23.20;90.60
43665;DHT22;29263;48.172;11.484;2023-09-19T13:47:56;23.20;90.00
43665;DHT22;29263;48.172;11.484;2023-09-19T13:50:21;23.30;90.80
43665;DHT22;29263;48.172;11.484;2023-09-19T13:52:50;23.10;89.80
43665;DHT22;29263;48.172;11.484;2023-09-19T13:55:17;23.00;90.60
43665;DHT22;29263;48.172;11.484;2023-09-19T13:57:46;23.10;89.80
43665;DHT22;29263;48.172;11.484;2023-09-19T14:00:12;23.10;89.80
43665;DHT22;29263;48.172;11.484;2023-09-19T14:02:41;23.10;90.60
43665;DHT22;29263;48.172;11.484;2023-09-19T14:05:09;23.10;90.80
43665;DHT22;29263;48.172;11.484;2023-09-19T14:07:37;22.90;91.10
43665;DHT22;29263;48.172;11.484;2023-09-19T14:10:03;22.90;91.20
43665;DHT22;29263;48.172;11.484;2023-09-19T14:12:33;23.10;90.60
43665;DHT22;29263;48.172;11.484;2023-09-19T14:15:00;23.40;89.00
43665;DHT22;29263;48.172;11.484;2023-09-19T14:17:25;23.70;89.70
43665;DHT22;29263;48.172;11.484;2023-09-19T14:19:52;24.10;87.90
43665;DHT22;29263;48.172;11.484;2023-09-19T14:22:17;24.10;87.00
43665;DHT22;29263;48.172;11.484;2023-09-19T14:24:43;24.00;83.90
43665;DHT22;29263;48.172;11.484;2023-09-19T14:27:09;23.90;84.80
43665;DHT22;29263;48.172;11.484;2023-09-19T14:29:36;23.70;85.70
43665;DHT22;29263;48.172;11.484;2023-09-19T14:32:02;23.50;83.90
43665;DHT22;29263;48.172;11.484;2023-09-19T14:34:28;23.30;88.10
43665;DHT22;29263;48.172;11.484;2023-09-19T14:36:53;23.10;85.90
43665;DHT22;29263;48.172;11.484;2023-09-19T14:39:22;22.90;86.10
43665;DHT22;29263;48.172;11.484;2023-09-19T14:41:49;22.70;88.30
43665;DHT22;29263;48.172;11.484;2023-09-19T14:44:15;22.60;88.00
43665;DHT22;29263;48.172;11.484;2023-09-19T14:46:41;22.40;89.70
43665;DHT22;29263;48.172;11.484;2023-09-19T14:49:09;22.20;90.00
43665;DHT22;29263;48.172;11.484;2023-09-19T14:51:37;22.30;89.20
43665;DHT22;29263;48.172;11.484;2023-09-19T14:54:03;22.40;90.00
43665;DHT22;29263;48.172;11.484;2023-09-19T14:56:29;22.40;89.90
43665;DHT22;29263;48.172;11.484;2023-09-19T14:58:56;22.50;88.50
43665;DHT22;29263;48.172;11.484;2023-09-19T15:01:22;22.50;88.70
43665;DHT22;29263;48.172;11.484;2023-09-19T15:03:47;22.50;89.10
43665;DHT22;29263;48.172;11.484;2023-09-19T15:06:15;22.50;86.70
43665;DHT22;29263;48.172;11.484;2023-09-19T15:08:44;22.50;87.50
43665;DHT22;29263;48.172;11.484;2023-09-19T15:11:16;22.50;88.30
43665;DHT22;29263;48.172;11.484;2023-09-19T15:13:43;22.40;90.20
43665;DHT22;29263;48.172;11.484;2023-09-19T15:16:09;22.30;89.10
43665;DHT22;29263;48.172;11.484;2023-09-19T15:18:39;22.30;87.00
43665;DHT22;29263;48.172;11.484;2023-09-19T15:21:10;22.20;88.70
43665;DHT22;29263;48.172;11.484;2023-09-19T15:23:36;22.10;86.80
43665;DHT22;29263;48.172;11.484;2023-09-19T15:26:07;22.20;87.50
43665;DHT22;29263;48.172;11.484;2023-09-19T15:28:34;22.20;86.50
43665;DHT22;29263;48.172;11.484;2023-09-19T15:33:28;22.30;88.00
43665;DHT22;29263;48.172;11.484;2023-09-19T15:36:10;22.30;88.90
43665;DHT22;29263;48.172;11.484;2023-09-19T15:39:01;22.20;87.60
43665;DHT22;29263;48.172;11.484;2023-09-19T15:43:57;22.10;87.00
43665;DHT22;29263;48.172;11.484;2023-09-19T15:46:24;22.00;86.00
43665;DHT22;29263;48.172;11.484;2023-09-19T15:48:52;22.00;85.20
43665;DHT22;29263;48.172;11.484;2023-09-19T15:51:18;21.90;86.50
43665;DHT22;29263;48.172;11.484;2023-09-19T15:53:49;21.80;84.20
43665;DHT22;29263;48.172;11.484;2023-09-19T15:56:18;21.80;85.00
43665;DHT22;29263;48.172;11.484;2023-09-19T15:58:47;21.70;85.30
43665;DHT22;29263;48.172;11.484;2023-09-19T16:01:14;21.60;85.30
43665;DHT22;29263;48.172;11.484;2023-09-19T16:03:49;21.60;85.90
43665;DHT22;29263;48.172;11.484;2023-09-19T16:06:19;21.50;86.60
43665;DHT22;29263;48.172;11.484;2023-09-19T16:08:46;21.50;86.90
43665;DHT22;29263;48.172;11.484;2023-09-19T16:11:15;21.40;87.10
43665;DHT22;29263;48.172;11.484;2023-09-19T16:13:42;21.30;87.30
43665;DHT22;29263;48.172;11.484;2023-09-19T16:16:08;21.30;87.60
43665;DHT22;29263;48.172;11.484;2023-09-19T16:18:38;21.30;88.70
43665;DHT22;29263;48.172;11.484;2023-09-19T16:21:08;21.20;88.60
43665;DHT22;29263;48.172;11.484;2023-09-19T16:23:33;21.20;89.10
43665;DHT22;29263;48.172;11.484;2023-09-19T16:26:04;21.20;87.60
43665;DHT22;29263;48.172;11.484;2023-09-19T16:28:31;21.20;87.90
43665;DHT22;29263;48.172;11.484;2023-09-19T16:30:58;21.10;88.00
43665;DHT22;29263;48.172;11.484;2023-09-19T16:33:25;21.10;89.20